sensor_id;sensor_type;location;lat;lon;timestamp;P1;durP1;ratioP1;P2;durP2;ratioP2
78131;SDS011;67381;47.672;9.380;2023-08-12T00:00:03;6.35;;;3.15;;
78131;SDS011;67381;47.672;9.380;2023-08-12T00:02:43;4.78;;;2.58;;
78131;SDS011;67381;47.672;9.380;2023-08-12T00:05:11;9.25;;;3.08;;
78131;SDS011;67381;47.672;9.380;2023-08-12T00:07:39;8.70;;;2.85;;
78131;SDS011;67381;47.672;9.380;2023-08-12T00:10:10;7.57;;;3.35;;
78131;SDS011;67381;47.672;9.380;2023-08-12T00:12:39;5.78;;;2.80;;
78131;SDS011;67381;47.672;9.380;2023-08-12T00:15:06;6.53;;;2.92;;
78131;SDS011;67381;47.672;9.380;2023-08-12T00:17:35;12.85;;;3.58;;
78131;SDS011;67381;47.672;9.380;2023-08-12T00:20:04;6.47;;;3.30;;
78131;SDS011;67381;47.672;9.380;2023-08-12T00:22:33;5.53;;;3.00;;
78131;SDS011;67381;47.672;9.380;2023-08-12T00:25:01;4.30;;;2.90;;
78131;SDS011;67381;47.672;9.380;2023-08-12T00:27:28;6.40;;;3.28;;
78131;SDS011;67381;47.672;9.380;2023-08-12T00:29:56;5.95;;;3.38;;
78131;SDS011;67381;47.672;9.380;2023-08-12T00:32:23;6.45;;;3.20;;
78131;SDS011;67381;47.672;9.380;2023-08-12T00:34:51;15.55;;;3.28;;
78131;SDS011;67381;47.672;9.380;2023-08-12T00:37:18;6.20;;;3.50;;
78131;SDS011;67381;47.672;9.380;2023-08-12T00:39:45;7.75;;;3.03;;
78131;SDS011;67381;47.672;9.380;2023-08-12T00:42:13;7.55;;;2.83;;
78131;SDS011;67381;47.672;9.380;2023-08-12T00:44:40;6.63;;;3.35;;
78131;SDS011;67381;47.672;9.380;2023-08-12T00:47:07;6.18;;;3.05;;
78131;SDS011;67381;47.672;9.380;2023-08-12T00:49:35;6.70;;;3.45;;
78131;SDS011;67381;47.672;9.380;2023-08-12T00:52:04;8.98;;;3.20;;
78131;SDS011;67381;47.672;9.380;2023-08-12T00:54:32;5.95;;;3.20;;
78131;SDS011;67381;47.672;9.380;2023-08-12T00:56:59;7.95;;;3.92;;
78131;SDS011;67381;47.672;9.380;2023-08-12T00:59:27;8.32;;;4.38;;
78131;SDS011;67381;47.672;9.380;2023-08-12T01:01:55;6.10;;;3.45;;
78131;SDS011;67381;47.672;9.380;2023-08-12T01:04:22;8.50;;;3.45;;
78131;SDS011;67381;47.672;9.380;2023-08-12T01:06:50;5.18;;;3.33;;
78131;SDS011;67381;47.672;9.380;2023-08-12T01:09:17;11.13;;;4.15;;
78131;SDS011;67381;47.672;9.380;2023-08-12T01:11:48;10.50;;;3.72;;
78131;SDS011;67381;47.672;9.380;2023-08-12T01:14:22;7.82;;;3.38;;
78131;SDS011;67381;47.672;9.380;2023-08-12T01:16:56;5.05;;;3.15;;
78131;SDS011;67381;47.672;9.380;2023-08-12T01:19:34;7.75;;;3.40;;
78131;SDS011;67381;47.672;9.380;2023-08-12T01:22:03;7.82;;;3.83;;
78131;SDS011;67381;47.672;9.380;2023-08-12T01:24:35;6.05;;;2.95;;
78131;SDS011;67381;47.672;9.380;2023-08-12T01:27:05;5.15;;;3.05;;
78131;SDS011;67381;47.672;9.380;2023-08-12T01:29:33;7.65;;;3.08;;
78131;SDS011;67381;47.672;9.380;2023-08-12T01:34:39;10.38;;;3.65;;
78131;SDS011;67381;47.672;9.380;2023-08-12T01:37:14;8.65;;;3.60;;
78131;SDS011;67381;47.672;9.380;2023-08-12T01:39:45;6.93;;;3.70;;
78131;SDS011;67381;47.672;9.380;2023-08-12T01:42:12;8.13;;;3.45;;
78131;SDS011;67381;47.672;9.380;2023-08-12T01:44:40;4.93;;;3.13;;
78131;SDS011;67381;47.672;9.380;2023-08-12T01:47:09;5.10;;;3.03;;
78131;SDS011;67381;47.672;9.380;2023-08-12T01:49:37;10.77;;;3.28;;
78131;SDS011;67381;47.672;9.380;2023-08-12T01:52:04;7.75;;;3.20;;
78131;SDS011;67381;47.672;9.380;2023-08-12T01:54:32;8.82;;;3.47;;
78131;SDS011;67381;47.672;9.380;2023-08-12T01:57:02;5.82;;;3.10;;
78131;SDS011;67381;47.672;9.380;2023-08-12T01:59:32;7.68;;;2.78;;
78131;SDS011;67381;47.672;9.380;2023-08-12T02:01:59;5.80;;;2.92;;
78131;SDS011;67381;47.672;9.380;2023-08-12T02:04:27;7.93;;;2.92;;
78131;SDS011;67381;47.672;9.380;2023-08-12T02:06:54;9.95;;;3.83;;
78131;SDS011;67381;47.672;9.380;2023-08-12T02:09:22;6.15;;;3.47;;
78131;SDS011;67381;47.672;9.380;2023-08-12T02:11:50;5.72;;;3.28;;
78131;SDS011;67381;47.672;9.380;2023-08-12T02:14:17;8.80;;;4.00;;
78131;SDS011;67381;47.672;9.380;2023-08-12T02:16:45;7.28;;;3.70;;
78131;SDS011;67381;47.672;9.380;2023-08-12T02:19:12;6.88;;;3.30;;
78131;SDS011;67381;47.672;9.380;2023-08-12T02:21:40;7.60;;;3.75;;
78131;SDS011;67381;47.672;9.380;2023-08-12T02:24:08;8.30;;;3.75;;
78131;SDS011;67381;47.672;9.380;2023-08-12T02:26:38;7.18;;;3.15;;
78131;SDS011;67381;47.672;9.380;2023-08-12T02:29:05;6.80;;;3.20;;
78131;SDS011;67381;47.672;9.380;2023-08-12T02:31:33;5.97;;;3.53;;
78131;SDS011;67381;47.672;9.380;2023-08-12T02:34:00;8.98;;;3.55;;
78131;SDS011;67381;47.672;9.380;2023-08-12T02:36:27;7.53;;;3.22;;
78131;SDS011;67381;47.672;9.380;2023-08-12T02:38:56;7.95;;;2.78;;
78131;SDS011;67381;47.672;9.380;2023-08-12T02:41:23;6.35;;;3.28;;
78131;SDS011;67381;47.672;9.380;2023-08-12T02:43:51;9.00;;;3.83;;
78131;SDS011;67381;47.672;9.380;2023-08-12T02:46:18;10.98;;;3.38;;
78131;SDS011;67381;47.672;9.380;2023-08-12T02:48:45;22.98;;;4.28;;
78131;SDS011;67381;47.672;9.380;2023-08-12T02:51:14;6.75;;;3.78;;
78131;SDS011;67381;47.672;9.380;2023-08-12T02:53:45;7.88;;;3.70;;
78131;SDS011;67381;47.672;9.380;2023-08-12T02:56:12;6.53;;;3.60;;
78131;SDS011;67381;47.672;9.380;2023-08-12T02:58:39;7.53;;;3.60;;
78131;SDS011;67381;47.672;9.380;2023-08-12T03:01:07;5.55;;;3.30;;
78131;SDS011;67381;47.672;9.380;2023-08-12T03:03:35;6.13;;;3.60;;
78131;SDS011;67381;47.672;9.380;2023-08-12T03:06:02;6.20;;;3.15;;
78131;SDS011;67381;47.672;9.380;2023-08-12T03:08:30;6.72;;;3.22;;
78131;SDS011;67381;47.672;9.380;2023-08-12T03:11:01;8.43;;;3.50;;
78131;SDS011;67381;47.672;9.380;2023-08-12T03:13:30;7.15;;;3.20;;
78131;SDS011;67381;47.672;9.380;2023-08-12T03:16:01;8.02;;;3.38;;
78131;SDS011;67381;47.672;9.380;2023-08-12T03:18:30;5.63;;;3.05;;
78131;SDS011;67381;47.672;9.380;2023-08-12T03:20:57;6.30;;;2.80;;
78131;SDS011;67381;47.672;9.380;2023-08-12T03:23:26;5.22;;;3.20;;
78131;SDS011;67381;47.672;9.380;2023-08-12T03:25:55;7.20;;;2.75;;
78131;SDS011;67381;47.672;9.380;2023-08-12T03:28:22;7.20;;;3.58;;
78131;SDS011;67381;47.672;9.380;2023-08-12T03:30:51;9.32;;;3.40;;
78131;SDS011;67381;47.672;9.380;2023-08-12T03:33:21;6.20;;;3.03;;
78131;SDS011;67381;47.672;9.380;2023-08-12T03:35:49;5.20;;;3.22;;
78131;SDS011;67381;47.672;9.380;2023-08-12T03:38:17;7.07;;;3.45;;
78131;SDS011;67381;47.672;9.380;2023-08-12T03:40:45;8.93;;;3.05;;
78131;SDS011;67381;47.672;9.380;2023-08-12T03:43:15;6.68;;;3.38;;
78131;SDS011;67381;47.672;9.380;2023-08-12T03:45:44;4.97;;;3.25;;
78131;SDS011;67381;47.672;9.380;2023-08-12T03:48:14;13.00;;;4.22;;
78131;SDS011;67381;47.672;9.380;2023-08-12T03:50:42;9.00;;;3.90;;
78131;SDS011;67381;47.672;9.380;2023-08-12T03:53:09;7.60;;;3.30;;
78131;SDS011;67381;47.672;9.380;2023-08-12T03:55:38;5.93;;;3.35;;
78131;SDS011;67381;47.672;9.380;2023-08-12T03:58:07;5.32;;;3.40;;
78131;SDS011;67381;47.672;9.380;2023-08-12T04:00:35;4.85;;;3.00;;
78131;SDS011;67381;47.672;9.380;2023-08-12T04:03:02;4.65;;;3.00;;
78131;SDS011;67381;47.672;9.380;2023-08-12T04:05:30;6.50;;;3.33;;
78131;SDS011;67381;47.672;9.380;2023-08-12T04:07:57;7.10;;;3.40;;
78131;SDS011;67381;47.672;9.380;2023-08-12T04:10:25;7.82;;;2.80;;
78131;SDS011;67381;47.672;9.380;2023-08-12T04:12:52;5.95;;;2.80;;
78131;SDS011;67381;47.672;9.380;2023-08-12T04:15:20;6.38;;;3.08;;
78131;SDS011;67381;47.672;9.380;2023-08-12T04:17:48;5.70;;;2.85;;
78131;SDS011;67381;47.672;9.380;2023-08-12T04:20:15;7.45;;;2.85;;
78131;SDS011;67381;47.672;9.380;2023-08-12T04:22:43;6.00;;;2.65;;
78131;SDS011;67381;47.672;9.380;2023-08-12T04:25:11;7.28;;;3.30;;
78131;SDS011;67381;47.672;9.380;2023-08-12T04:27:38;4.95;;;2.90;;
78131;SDS011;67381;47.672;9.380;2023-08-12T04:30:06;4.53;;;3.15;;
78131;SDS011;67381;47.672;9.380;2023-08-12T04:32:34;4.97;;;2.83;;
78131;SDS011;67381;47.672;9.380;2023-08-12T04:35:01;5.60;;;2.80;;
78131;SDS011;67381;47.672;9.380;2023-08-12T04:37:30;7.43;;;2.78;;
78131;SDS011;67381;47.672;9.380;2023-08-12T04:39:59;9.00;;;2.45;;
78131;SDS011;67381;47.672;9.380;2023-08-12T04:42:28;11.32;;;3.55;;
78131;SDS011;67381;47.672;9.380;2023-08-12T04:44:56;7.32;;;3.20;;
78131;SDS011;67381;47.672;9.380;2023-08-12T04:47:24;4.70;;;2.90;;
78131;SDS011;67381;47.672;9.380;2023-08-12T04:49:52;5.53;;;2.80;;
78131;SDS011;67381;47.672;9.380;2023-08-12T04:52:20;5.47;;;2.70;;
78131;SDS011;67381;47.672;9.380;2023-08-12T04:54:52;5.40;;;2.90;;
78131;SDS011;67381;47.672;9.380;2023-08-12T04:57:21;5.15;;;2.97;;
78131;SDS011;67381;47.672;9.380;2023-08-12T04:59:49;5.97;;;3.17;;
78131;SDS011;67381;47.672;9.380;2023-08-12T05:02:16;8.85;;;3.33;;
78131;SDS011;67381;47.672;9.380;2023-08-12T05:04:47;6.28;;;3.35;;
78131;SDS011;67381;47.672;9.380;2023-08-12T05:07:16;5.30;;;2.75;;
78131;SDS011;67381;47.672;9.380;2023-08-12T05:09:43;5.45;;;2.85;;
78131;SDS011;67381;47.672;9.380;2023-08-12T05:12:12;6.85;;;2.70;;
78131;SDS011;67381;47.672;9.380;2023-08-12T05:14:40;4.07;;;2.65;;
78131;SDS011;67381;47.672;9.380;2023-08-12T05:17:08;6.10;;;2.83;;
78131;SDS011;67381;47.672;9.380;2023-08-12T05:19:36;5.13;;;3.25;;
78131;SDS011;67381;47.672;9.380;2023-08-12T05:22:03;6.70;;;3.38;;
78131;SDS011;67381;47.672;9.380;2023-08-12T05:24:32;4.40;;;2.90;;
78131;SDS011;67381;47.672;9.380;2023-08-12T05:26:59;6.72;;;3.38;;
78131;SDS011;67381;47.672;9.380;2023-08-12T05:29:27;5.18;;;2.92;;
78131;SDS011;67381;47.672;9.380;2023-08-12T05:31:54;6.63;;;3.67;;
78131;SDS011;67381;47.672;9.380;2023-08-12T05:34:21;4.82;;;3.10;;
78131;SDS011;67381;47.672;9.380;2023-08-12T05:36:49;5.70;;;3.25;;
78131;SDS011;67381;47.672;9.380;2023-08-12T05:39:17;8.07;;;3.35;;
78131;SDS011;67381;47.672;9.380;2023-08-12T05:41:45;5.50;;;3.78;;
78131;SDS011;67381;47.672;9.380;2023-08-12T05:44:13;6.10;;;3.38;;
78131;SDS011;67381;47.672;9.380;2023-08-12T05:46:41;7.03;;;3.28;;
78131;SDS011;67381;47.672;9.380;2023-08-12T05:49:08;5.72;;;3.67;;
78131;SDS011;67381;47.672;9.380;2023-08-12T05:51:35;6.38;;;3.47;;
78131;SDS011;67381;47.672;9.380;2023-08-12T05:54:03;6.10;;;3.25;;
78131;SDS011;67381;47.672;9.380;2023-08-12T05:56:30;5.53;;;3.17;;
78131;SDS011;67381;47.672;9.380;2023-08-12T05:58:58;7.60;;;3.45;;
78131;SDS011;67381;47.672;9.380;2023-08-12T06:01:25;4.93;;;3.10;;
78131;SDS011;67381;47.672;9.380;2023-08-12T06:03:52;5.13;;;3.17;;
78131;SDS011;67381;47.672;9.380;2023-08-12T06:06:20;4.97;;;3.40;;
78131;SDS011;67381;47.672;9.380;2023-08-12T06:08:48;8.90;;;3.00;;
78131;SDS011;67381;47.672;9.380;2023-08-12T06:11:16;4.22;;;3.08;;
78131;SDS011;67381;47.672;9.380;2023-08-12T06:13:43;6.30;;;3.35;;
78131;SDS011;67381;47.672;9.380;2023-08-12T06:16:11;7.70;;;3.25;;
78131;SDS011;67381;47.672;9.380;2023-08-12T06:18:38;5.88;;;3.42;;
78131;SDS011;67381;47.672;9.380;2023-08-12T06:21:05;6.00;;;3.83;;
78131;SDS011;67381;47.672;9.380;2023-08-12T06:23:33;5.60;;;3.38;;
78131;SDS011;67381;47.672;9.380;2023-08-12T06:26:00;5.32;;;3.70;;
78131;SDS011;67381;47.672;9.380;2023-08-12T06:28:28;5.93;;;3.65;;
78131;SDS011;67381;47.672;9.380;2023-08-12T06:30:55;7.28;;;3.95;;
78131;SDS011;67381;47.672;9.380;2023-08-12T06:33:22;8.15;;;4.05;;
78131;SDS011;67381;47.672;9.380;2023-08-12T06:35:50;7.63;;;3.63;;
78131;SDS011;67381;47.672;9.380;2023-08-12T06:38:18;5.80;;;3.67;;
78131;SDS011;67381;47.672;9.380;2023-08-12T06:40:46;7.65;;;3.70;;
78131;SDS011;67381;47.672;9.380;2023-08-12T06:43:14;9.77;;;3.63;;
78131;SDS011;67381;47.672;9.380;2023-08-12T06:45:41;8.18;;;3.70;;
78131;SDS011;67381;47.672;9.380;2023-08-12T06:48:09;6.68;;;3.88;;
78131;SDS011;67381;47.672;9.380;2023-08-12T06:50:36;6.15;;;3.90;;
78131;SDS011;67381;47.672;9.380;2023-08-12T06:53:04;6.80;;;4.05;;
78131;SDS011;67381;47.672;9.380;2023-08-12T06:55:31;6.13;;;3.88;;
78131;SDS011;67381;47.672;9.380;2023-08-12T06:57:59;6.97;;;3.65;;
78131;SDS011;67381;47.672;9.380;2023-08-12T07:00:27;10.32;;;4.05;;
78131;SDS011;67381;47.672;9.380;2023-08-12T07:02:54;6.72;;;3.80;;
78131;SDS011;67381;47.672;9.380;2023-08-12T07:05:21;5.93;;;4.38;;
78131;SDS011;67381;47.672;9.380;2023-08-12T07:07:49;6.97;;;3.97;;
78131;SDS011;67381;47.672;9.380;2023-08-12T07:10:16;6.57;;;3.92;;
78131;SDS011;67381;47.672;9.380;2023-08-12T07:12:44;7.07;;;3.90;;
78131;SDS011;67381;47.672;9.380;2023-08-12T07:15:11;5.38;;;3.40;;
78131;SDS011;67381;47.672;9.380;2023-08-12T07:17:39;7.63;;;3.83;;
78131;SDS011;67381;47.672;9.380;2023-08-12T07:20:06;6.25;;;3.40;;
78131;SDS011;67381;47.672;9.380;2023-08-12T07:22:37;5.75;;;3.60;;
78131;SDS011;67381;47.672;9.380;2023-08-12T07:25:04;5.82;;;3.15;;
78131;SDS011;67381;47.672;9.380;2023-08-12T07:27:32;5.90;;;3.83;;
78131;SDS011;67381;47.672;9.380;2023-08-12T07:29:59;8.05;;;3.67;;
78131;SDS011;67381;47.672;9.380;2023-08-12T07:32:26;10.15;;;4.03;;
78131;SDS011;67381;47.672;9.380;2023-08-12T07:34:54;8.80;;;3.70;;
78131;SDS011;67381;47.672;9.380;2023-08-12T07:37:21;5.53;;;3.40;;
78131;SDS011;67381;47.672;9.380;2023-08-12T07:39:49;5.95;;;3.83;;
78131;SDS011;67381;47.672;9.380;2023-08-12T07:42:16;6.28;;;3.15;;
78131;SDS011;67381;47.672;9.380;2023-08-12T07:44:43;4.85;;;3.38;;
78131;SDS011;67381;47.672;9.380;2023-08-12T07:47:11;5.38;;;3.30;;
78131;SDS011;67381;47.672;9.380;2023-08-12T07:49:38;6.13;;;3.80;;
78131;SDS011;67381;47.672;9.380;2023-08-12T07:52:06;5.00;;;3.70;;
78131;SDS011;67381;47.672;9.380;2023-08-12T07:54:33;5.72;;;4.60;;
78131;SDS011;67381;47.672;9.380;2023-08-12T07:57:00;6.65;;;3.50;;
78131;SDS011;67381;47.672;9.380;2023-08-12T07:59:28;7.35;;;3.60;;
78131;SDS011;67381;47.672;9.380;2023-08-12T08:01:55;7.18;;;4.00;;
78131;SDS011;67381;47.672;9.380;2023-08-12T08:04:22;6.68;;;4.32;;
78131;SDS011;67381;47.672;9.380;2023-08-12T08:06:50;7.90;;;4.30;;
78131;SDS011;67381;47.672;9.380;2023-08-12T08:09:17;6.88;;;4.15;;
78131;SDS011;67381;47.672;9.380;2023-08-12T08:11:45;6.53;;;3.75;;
78131;SDS011;67381;47.672;9.380;2023-08-12T08:14:12;5.47;;;4.30;;
78131;SDS011;67381;47.672;9.380;2023-08-12T08:16:39;8.02;;;4.68;;
78131;SDS011;67381;47.672;9.380;2023-08-12T08:19:08;7.38;;;4.30;;
78131;SDS011;67381;47.672;9.380;2023-08-12T08:21:39;6.18;;;4.30;;
78131;SDS011;67381;47.672;9.380;2023-08-12T08:24:06;7.03;;;3.13;;
78131;SDS011;67381;47.672;9.380;2023-08-12T08:26:35;5.60;;;4.15;;
78131;SDS011;67381;47.672;9.380;2023-08-12T08:29:02;10.63;;;5.13;;
78131;SDS011;67381;47.672;9.380;2023-08-12T08:31:30;9.35;;;4.85;;
78131;SDS011;67381;47.672;9.380;2023-08-12T08:33:57;6.10;;;4.38;;
78131;SDS011;67381;47.672;9.380;2023-08-12T08:36:25;8.95;;;4.70;;
78131;SDS011;67381;47.672;9.380;2023-08-12T08:38:52;7.72;;;4.72;;
78131;SDS011;67381;47.672;9.380;2023-08-12T08:41:19;7.82;;;5.05;;
78131;SDS011;67381;47.672;9.380;2023-08-12T08:43:48;9.55;;;5.38;;
78131;SDS011;67381;47.672;9.380;2023-08-12T08:46:16;8.35;;;4.68;;
78131;SDS011;67381;47.672;9.380;2023-08-12T08:48:44;7.03;;;5.03;;
78131;SDS011;67381;47.672;9.380;2023-08-12T08:51:12;6.85;;;4.22;;
78131;SDS011;67381;47.672;9.380;2023-08-12T08:53:40;9.65;;;5.38;;
78131;SDS011;67381;47.672;9.380;2023-08-12T08:56:08;8.05;;;4.95;;
78131;SDS011;67381;47.672;9.380;2023-08-12T08:58:41;6.88;;;4.70;;
78131;SDS011;67381;47.672;9.380;2023-08-12T09:01:08;6.30;;;4.97;;
78131;SDS011;67381;47.672;9.380;2023-08-12T09:03:38;10.07;;;5.00;;
78131;SDS011;67381;47.672;9.380;2023-08-12T09:06:06;8.05;;;4.78;;
78131;SDS011;67381;47.672;9.380;2023-08-12T09:08:33;7.75;;;4.65;;
78131;SDS011;67381;47.672;9.380;2023-08-12T09:11:01;8.73;;;5.30;;
78131;SDS011;67381;47.672;9.380;2023-08-12T09:13:29;7.00;;;5.05;;
78131;SDS011;67381;47.672;9.380;2023-08-12T09:15:57;7.35;;;5.68;;
78131;SDS011;67381;47.672;9.380;2023-08-12T09:18:25;7.25;;;5.90;;
78131;SDS011;67381;47.672;9.380;2023-08-12T09:20:53;10.00;;;7.18;;
78131;SDS011;67381;47.672;9.380;2023-08-12T09:23:20;9.05;;;5.97;;
78131;SDS011;67381;47.672;9.380;2023-08-12T09:25:48;9.20;;;6.10;;
78131;SDS011;67381;47.672;9.380;2023-08-12T09:28:15;10.32;;;5.38;;
78131;SDS011;67381;47.672;9.380;2023-08-12T09:30:43;7.38;;;5.40;;
78131;SDS011;67381;47.672;9.380;2023-08-12T09:33:23;11.77;;;5.82;;
78131;SDS011;67381;47.672;9.380;2023-08-12T09:35:52;7.93;;;5.28;;
78131;SDS011;67381;47.672;9.380;2023-08-12T09:38:19;7.07;;;5.13;;
78131;SDS011;67381;47.672;9.380;2023-08-12T09:40:48;6.32;;;4.30;;
78131;SDS011;67381;47.672;9.380;2023-08-12T09:43:16;7.22;;;5.88;;
78131;SDS011;67381;47.672;9.380;2023-08-12T09:45:43;8.55;;;4.78;;
78131;SDS011;67381;47.672;9.380;2023-08-12T09:48:12;8.75;;;5.53;;
78131;SDS011;67381;47.672;9.380;2023-08-12T09:50:41;6.40;;;5.20;;
78131;SDS011;67381;47.672;9.380;2023-08-12T09:53:08;8.32;;;5.00;;
78131;SDS011;67381;47.672;9.380;2023-08-12T09:55:36;8.68;;;4.78;;
78131;SDS011;67381;47.672;9.380;2023-08-12T09:58:05;10.38;;;4.13;;
78131;SDS011;67381;47.672;9.380;2023-08-12T10:00:34;12.18;;;4.43;;
78131;SDS011;67381;47.672;9.380;2023-08-12T10:03:02;6.20;;;4.70;;
78131;SDS011;67381;47.672;9.380;2023-08-12T10:05:31;9.05;;;5.50;;
78131;SDS011;67381;47.672;9.380;2023-08-12T10:07:59;7.35;;;4.78;;
78131;SDS011;67381;47.672;9.380;2023-08-12T10:10:30;10.52;;;5.70;;
78131;SDS011;67381;47.672;9.380;2023-08-12T10:12:59;6.40;;;4.30;;
78131;SDS011;67381;47.672;9.380;2023-08-12T10:15:28;6.90;;;4.35;;
78131;SDS011;67381;47.672;9.380;2023-08-12T10:17:56;6.82;;;5.40;;
78131;SDS011;67381;47.672;9.380;2023-08-12T10:20:24;8.85;;;5.10;;
78131;SDS011;67381;47.672;9.380;2023-08-12T10:22:52;8.05;;;5.38;;
78131;SDS011;67381;47.672;9.380;2023-08-12T10:25:20;7.70;;;5.78;;
78131;SDS011;67381;47.672;9.380;2023-08-12T10:27:52;8.57;;;4.47;;
78131;SDS011;67381;47.672;9.380;2023-08-12T10:30:20;7.47;;;4.90;;
78131;SDS011;67381;47.672;9.380;2023-08-12T10:32:47;7.32;;;5.40;;
78131;SDS011;67381;47.672;9.380;2023-08-12T10:35:15;8.15;;;4.70;;
78131;SDS011;67381;47.672;9.380;2023-08-12T10:37:43;9.95;;;5.38;;
78131;SDS011;67381;47.672;9.380;2023-08-12T10:40:22;9.15;;;5.43;;
78131;SDS011;67381;47.672;9.380;2023-08-12T10:42:50;7.90;;;5.70;;
78131;SDS011;67381;47.672;9.380;2023-08-12T10:45:18;8.15;;;6.72;;
78131;SDS011;67381;47.672;9.380;2023-08-12T10:47:51;8.45;;;7.05;;
78131;SDS011;67381;47.672;9.380;2023-08-12T10:50:36;8.63;;;6.40;;
78131;SDS011;67381;47.672;9.380;2023-08-12T10:56:00;8.95;;;6.95;;
78131;SDS011;67381;47.672;9.380;2023-08-12T10:58:29;9.85;;;7.43;;
78131;SDS011;67381;47.672;9.380;2023-08-12T11:01:01;14.00;;;8.15;;
78131;SDS011;67381;47.672;9.380;2023-08-12T11:03:32;12.57;;;7.85;;
78131;SDS011;67381;47.672;9.380;2023-08-12T11:06:03;15.25;;;9.02;;
78131;SDS011;67381;47.672;9.380;2023-08-12T11:08:31;11.25;;;8.73;;
78131;SDS011;67381;47.672;9.380;2023-08-12T11:11:00;11.48;;;8.90;;
78131;SDS011;67381;47.672;9.380;2023-08-12T11:13:28;12.38;;;11.02;;
78131;SDS011;67381;47.672;9.380;2023-08-12T11:16:09;13.45;;;9.45;;
78131;SDS011;67381;47.672;9.380;2023-08-12T11:18:36;11.45;;;9.35;;
78131;SDS011;67381;47.672;9.380;2023-08-12T11:21:04;10.75;;;8.35;;
78131;SDS011;67381;47.672;9.380;2023-08-12T11:23:31;11.68;;;8.50;;
78131;SDS011;67381;47.672;9.380;2023-08-12T11:25:59;13.15;;;6.90;;
78131;SDS011;67381;47.672;9.380;2023-08-12T11:28:27;8.15;;;6.30;;
78131;SDS011;67381;47.672;9.380;2023-08-12T11:30:55;9.95;;;6.80;;
78131;SDS011;67381;47.672;9.380;2023-08-12T11:33:23;10.75;;;8.27;;
78131;SDS011;67381;47.672;9.380;2023-08-12T11:35:51;12.15;;;10.90;;
78131;SDS011;67381;47.672;9.380;2023-08-12T11:38:18;9.63;;;8.10;;
78131;SDS011;67381;47.672;9.380;2023-08-12T11:40:45;8.63;;;7.20;;
78131;SDS011;67381;47.672;9.380;2023-08-12T11:43:13;9.68;;;7.25;;
78131;SDS011;67381;47.672;9.380;2023-08-12T11:45:41;8.63;;;7.43;;
78131;SDS011;67381;47.672;9.380;2023-08-12T11:48:09;9.30;;;7.63;;
78131;SDS011;67381;47.672;9.380;2023-08-12T11:50:36;9.90;;;7.03;;
78131;SDS011;67381;47.672;9.380;2023-08-12T11:53:04;8.32;;;6.55;;
78131;SDS011;67381;47.672;9.380;2023-08-12T11:55:34;10.00;;;6.15;;
78131;SDS011;67381;47.672;9.380;2023-08-12T11:58:01;10.60;;;5.55;;
78131;SDS011;67381;47.672;9.380;2023-08-12T12:00:29;7.15;;;5.32;;
78131;SDS011;67381;47.672;9.380;2023-08-12T12:02:56;8.95;;;5.68;;
78131;SDS011;67381;47.672;9.380;2023-08-12T12:05:27;7.72;;;5.90;;
78131;SDS011;67381;47.672;9.380;2023-08-12T12:07:58;9.63;;;5.75;;
78131;SDS011;67381;47.672;9.380;2023-08-12T12:10:27;8.82;;;4.70;;
78131;SDS011;67381;47.672;9.380;2023-08-12T12:12:59;6.35;;;5.57;;
78131;SDS011;67381;47.672;9.380;2023-08-12T12:15:27;6.63;;;4.97;;
78131;SDS011;67381;47.672;9.380;2023-08-12T12:17:55;7.82;;;6.25;;
78131;SDS011;67381;47.672;9.380;2023-08-12T12:20:22;6.85;;;5.68;;
78131;SDS011;67381;47.672;9.380;2023-08-12T12:22:50;9.25;;;5.20;;
78131;SDS011;67381;47.672;9.380;2023-08-12T12:25:20;8.52;;;6.22;;
78131;SDS011;67381;47.672;9.380;2023-08-12T12:27:48;6.93;;;4.70;;
78131;SDS011;67381;47.672;9.380;2023-08-12T12:30:16;8.13;;;4.95;;
78131;SDS011;67381;47.672;9.380;2023-08-12T12:32:44;7.20;;;5.45;;
78131;SDS011;67381;47.672;9.380;2023-08-12T12:35:12;5.78;;;4.72;;
78131;SDS011;67381;47.672;9.380;2023-08-12T12:37:39;5.90;;;5.20;;
78131;SDS011;67381;47.672;9.380;2023-08-12T12:40:07;8.15;;;5.07;;
78131;SDS011;67381;47.672;9.380;2023-08-12T12:42:35;8.32;;;4.45;;
78131;SDS011;67381;47.672;9.380;2023-08-12T12:45:02;7.47;;;5.78;;
78131;SDS011;67381;47.672;9.380;2023-08-12T12:47:30;6.78;;;5.18;;
78131;SDS011;67381;47.672;9.380;2023-08-12T12:49:57;5.75;;;4.15;;
78131;SDS011;67381;47.672;9.380;2023-08-12T12:52:25;7.15;;;4.70;;
78131;SDS011;67381;47.672;9.380;2023-08-12T12:54:52;7.47;;;4.65;;
78131;SDS011;67381;47.672;9.380;2023-08-12T12:57:19;7.20;;;4.60;;
78131;SDS011;67381;47.672;9.380;2023-08-12T12:59:47;5.40;;;4.25;;
78131;SDS011;67381;47.672;9.380;2023-08-12T13:02:15;5.20;;;3.90;;
78131;SDS011;67381;47.672;9.380;2023-08-12T13:04:43;6.88;;;4.55;;
78131;SDS011;67381;47.672;9.380;2023-08-12T13:07:11;7.57;;;3.67;;
78131;SDS011;67381;47.672;9.380;2023-08-12T13:09:38;6.10;;;3.88;;
78131;SDS011;67381;47.672;9.380;2023-08-12T13:12:07;6.90;;;3.58;;
78131;SDS011;67381;47.672;9.380;2023-08-12T13:14:35;7.38;;;3.88;;
78131;SDS011;67381;47.672;9.380;2023-08-12T13:17:02;5.70;;;4.05;;
78131;SDS011;67381;47.672;9.380;2023-08-12T13:19:30;6.82;;;4.60;;
78131;SDS011;67381;47.672;9.380;2023-08-12T13:21:57;7.82;;;3.80;;
78131;SDS011;67381;47.672;9.380;2023-08-12T13:24:24;6.53;;;4.85;;
78131;SDS011;67381;47.672;9.380;2023-08-12T13:26:52;5.03;;;3.15;;
78131;SDS011;67381;47.672;9.380;2023-08-12T13:29:21;5.63;;;3.72;;
78131;SDS011;67381;47.672;9.380;2023-08-12T13:31:49;5.55;;;3.90;;
78131;SDS011;67381;47.672;9.380;2023-08-12T13:34:16;6.35;;;3.47;;
78131;SDS011;67381;47.672;9.380;2023-08-12T13:36:44;6.03;;;3.50;;
78131;SDS011;67381;47.672;9.380;2023-08-12T13:39:11;5.47;;;3.42;;
78131;SDS011;67381;47.672;9.380;2023-08-12T13:41:39;5.25;;;3.40;;
78131;SDS011;67381;47.672;9.380;2023-08-12T13:44:06;7.72;;;3.22;;
78131;SDS011;67381;47.672;9.380;2023-08-12T13:46:34;4.97;;;2.90;;
78131;SDS011;67381;47.672;9.380;2023-08-12T13:49:01;6.25;;;3.47;;
78131;SDS011;67381;47.672;9.380;2023-08-12T13:51:28;7.75;;;3.63;;
78131;SDS011;67381;47.672;9.380;2023-08-12T13:53:56;4.50;;;3.05;;
78131;SDS011;67381;47.672;9.380;2023-08-12T13:56:24;5.63;;;2.92;;
78131;SDS011;67381;47.672;9.380;2023-08-12T13:58:51;6.60;;;2.80;;
78131;SDS011;67381;47.672;9.380;2023-08-12T14:01:18;5.50;;;2.40;;
78131;SDS011;67381;47.672;9.380;2023-08-12T14:03:46;5.25;;;3.35;;
78131;SDS011;67381;47.672;9.380;2023-08-12T14:06:13;6.70;;;2.50;;
78131;SDS011;67381;47.672;9.380;2023-08-12T14:08:40;4.22;;;2.92;;
78131;SDS011;67381;47.672;9.380;2023-08-12T14:11:08;4.63;;;3.10;;
78131;SDS011;67381;47.672;9.380;2023-08-12T14:13:35;3.85;;;2.60;;
78131;SDS011;67381;47.672;9.380;2023-08-12T14:16:02;6.97;;;3.67;;
78131;SDS011;67381;47.672;9.380;2023-08-12T14:18:30;4.72;;;2.78;;
78131;SDS011;67381;47.672;9.380;2023-08-12T14:20:57;5.78;;;2.28;;
78131;SDS011;67381;47.672;9.380;2023-08-12T14:23:25;4.22;;;3.00;;
78131;SDS011;67381;47.672;9.380;2023-08-12T14:25:52;4.75;;;2.25;;
78131;SDS011;67381;47.672;9.380;2023-08-12T14:28:19;4.22;;;2.33;;
78131;SDS011;67381;47.672;9.380;2023-08-12T14:30:47;4.95;;;2.55;;
78131;SDS011;67381;47.672;9.380;2023-08-12T14:33:15;5.30;;;2.72;;
78131;SDS011;67381;47.672;9.380;2023-08-12T14:35:42;5.45;;;2.55;;
78131;SDS011;67381;47.672;9.380;2023-08-12T14:38:09;4.82;;;2.30;;
78131;SDS011;67381;47.672;9.380;2023-08-12T14:40:37;5.00;;;2.00;;
78131;SDS011;67381;47.672;9.380;2023-08-12T14:43:06;3.42;;;2.30;;
78131;SDS011;67381;47.672;9.380;2023-08-12T14:45:34;4.28;;;2.22;;
78131;SDS011;67381;47.672;9.380;2023-08-12T14:48:01;3.88;;;2.40;;
78131;SDS011;67381;47.672;9.380;2023-08-12T14:50:29;7.25;;;2.88;;
78131;SDS011;67381;47.672;9.380;2023-08-12T14:52:57;5.65;;;2.30;;
78131;SDS011;67381;47.672;9.380;2023-08-12T14:55:24;4.80;;;2.90;;